Time;durP1;ratioP1;P1;durP2;ratioP2;P2;SDS_P1;SDS_P2;PMS_P1;PMS_P2;Temp;Humidity;BMP_temperature;BMP_pressure;BME280_temperature;BME280_humidity;BME280_pressure;Samples;Min_cycle;Max_cycle;Signal;HPM_P1;HPM_P2
2022/02/15 00:00:22;;;;;;;12.07;3.17;;;;;;;5.28;100.00;100730.28;5267754;28;20092;-78
2022/02/15 00:02:53;;;;;;;8.27;3.05;;;;;;;5.24;100.00;100729.72;5286119;28;20031;-78
2022/02/15 00:05:24;;;;;;;11.93;3.92;;;;;;;5.29;100.00;100730.16;5285854;28;20019;-78
2022/02/15 00:07:54;;;;;;;7.95;3.80;;;;;;;5.34;100.00;100727.91;5286243;28;20114;-78
2022/02/15 00:10:24;;;;;;;12.38;3.72;;;;;;;5.39;100.00;100725.69;5285920;28;20345;-78
2022/02/15 00:12:55;;;;;;;15.30;3.83;;;;;;;5.43;100.00;100720.94;5286226;28;20500;-78
2022/02/15 00:15:25;;;;;;;11.52;3.47;;;;;;;5.44;100.00;100730.63;5278943;28;20418;-78
2022/02/15 00:17:56;;;;;;;14.32;3.72;;;;;;;5.41;100.00;100734.38;5279381;28;20031;-78
2022/02/15 00:20:27;;;;;;;19.02;4.60;;;;;;;5.43;100.00;100731.59;5286157;28;20031;-78
2022/02/15 00:22:57;;;;;;;16.25;3.72;;;;;;;5.38;100.00;100736.47;5276320;28;20043;-78
2022/02/15 00:25:28;;;;;;;9.25;3.42;;;;;;;5.36;100.00;100733.94;5285636;28;20106;-78
2022/02/15 00:27:58;;;;;;;13.20;5.25;;;;;;;5.35;100.00;100732.25;5285554;28;20022;-78
2022/02/15 00:30:29;;;;;;;10.57;3.40;;;;;;;5.30;100.00;100734.47;5285730;28;20347;-78
2022/02/15 00:32:59;;;;;;;11.35;3.35;;;;;;;5.27;100.00;100734.78;5285605;28;20419;-78
2022/02/15 00:35:30;;;;;;;10.43;4.05;;;;;;;5.24;100.00;100735.03;5285809;28;20576;-78
2022/02/15 00:38:00;;;;;;;10.52;4.50;;;;;;;5.26;100.00;100738.38;5285558;28;20054;-78
2022/02/15 00:40:30;;;;;;;10.45;4.30;;;;;;;5.27;100.00;100745.41;5285880;28;20111;-78
2022/02/15 00:43:01;;;;;;;16.17;4.40;;;;;;;5.33;100.00;100744.88;5285617;28;20011;-78
2022/02/15 00:45:31;;;;;;;10.88;4.03;;;;;;;5.39;100.00;100751.47;5285467;28;20028;-78
2022/02/15 00:48:02;;;;;;;17.17;5.57;;;;;;;5.40;100.00;100756.63;5285206;28;20027;-78
2022/02/15 00:50:33;;;;;;;16.65;4.63;;;;;;;5.41;100.00;100757.47;5285315;28;20031;-78
2022/02/15 00:53:03;;;;;;;10.75;3.97;;;;;;;5.44;100.00;100760.72;5285303;28;20055;-78
2022/02/15 00:55:34;;;;;;;14.95;4.97;;;;;;;5.49;100.00;100764.78;5285295;28;20035;-78
2022/02/15 00:58:04;;;;;;;13.32;4.40;;;;;;;5.50;100.00;100769.13;5267072;28;20199;-78
2022/02/15 01:00:35;;;;;;;14.95;4.40;;;;;;;5.49;100.00;100768.28;5285716;28;20031;-79
2022/02/15 01:03:05;;;;;;;12.57;5.22;;;;;;;5.51;100.00;100765.50;5285695;28;20058;-78
2022/02/15 01:05:36;;;;;;;14.30;4.97;;;;;;;5.50;100.00;100771.78;5266990;28;20031;-78
2022/02/15 01:08:06;;;;;;;10.02;4.60;;;;;;;5.49;100.00;100770.13;5285906;28;20019;-78
2022/02/15 01:10:37;;;;;;;15.65;4.20;;;;;;;5.51;100.00;100774.31;5285625;28;20016;-78
2022/02/15 01:13:07;;;;;;;15.65;4.03;;;;;;;5.52;100.00;100772.50;5266828;28;20034;-78
2022/02/15 01:15:38;;;;;;;9.30;4.53;;;;;;;5.48;100.00;100777.25;5276480;28;20047;-78
2022/02/15 01:18:09;;;;;;;9.55;4.00;;;;;;;5.50;100.00;100788.59;5280165;28;20035;-78
2022/02/15 01:20:39;;;;;;;14.95;4.47;;;;;;;5.51;100.00;100789.44;5285554;28;20019;-78
2022/02/15 01:23:10;;;;;;;13.75;4.32;;;;;;;5.48;100.00;100790.56;5275114;28;20069;-78
2022/02/15 01:25:40;;;;;;;12.82;3.90;;;;;;;5.46;100.00;100782.69;5266592;28;20028;-78
2022/02/15 01:28:10;;;;;;;9.45;4.13;;;;;;;5.45;100.00;100791.66;5288382;28;20023;-78
2022/02/15 01:30:41;;;;;;;19.88;5.03;;;;;;;5.49;100.00;100804.72;5289672;28;20023;-78
2022/02/15 01:33:12;;;;;;;11.63;4.25;;;;;;;5.50;100.00;100795.75;5288930;28;20448;-78
2022/02/15 01:35:42;;;;;;;8.18;3.95;;;;;;;5.44;100.00;100800.63;5289219;28;20039;-78
2022/02/15 01:38:13;;;;;;;10.25;4.20;;;;;;;5.43;100.00;100803.44;5289066;28;20096;-78
2022/02/15 01:40:43;;;;;;;11.85;4.20;;;;;;;5.42;100.00;100809.69;5289090;28;20102;-78
2022/02/15 01:43:14;;;;;;;16.98;4.30;;;;;;;5.40;100.00;100812.50;5288681;28;20028;-78
2022/02/15 01:45:44;;;;;;;16.33;5.00;;;;;;;5.42;100.00;100818.56;5269519;28;20023;-78
2022/02/15 01:48:14;;;;;;;12.05;4.82;;;;;;;5.36;100.00;100813.75;5287525;28;20066;-78
2022/02/15 01:50:45;;;;;;;14.32;5.00;;;;;;;5.30;100.00;100816.94;5289038;28;20371;-79
2022/02/15 01:53:16;;;;;;;11.48;5.60;;;;;;;5.33;100.00;100824.66;5250712;28;20099;-78
2022/02/15 01:55:46;;;;;;;19.13;5.40;;;;;;;5.29;100.00;100822.41;5284893;28;20102;-77
2022/02/15 01:58:17;;;;;;;14.77;5.45;;;;;;;5.29;100.00;100825.06;5289464;28;20051;-78
2022/02/15 02:00:47;;;;;;;12.30;5.18;;;;;;;5.28;100.00;100826.88;5289199;28;20084;-77
2022/02/15 02:03:18;;;;;;;15.52;5.25;;;;;;;5.29;100.00;100827.72;5289161;28;20489;-77
2022/02/15 02:05:49;;;;;;;22.70;4.85;;;;;;;5.30;100.00;100822.25;5288754;28;20155;-76
2022/02/15 02:08:22;;;;;;;16.92;5.22;;;;;;;5.30;100.00;100824.09;5288286;28;20019;-77
2022/02/15 02:10:56;;;;;;;18.73;7.30;;;;;;;5.31;100.00;100817.78;5287910;28;20188;-77
2022/02/15 02:13:27;;;;;;;14.38;5.97;;;;;;;5.31;100.00;100825.75;5287258;28;20436;-77
2022/02/15 02:16:05;;;;;;;19.92;6.90;;;;;;;5.29;100.00;100833.03;5275220;28;20066;-77
2022/02/15 02:18:35;;;;;;;17.35;6.20;;;;;;;5.27;100.00;100830.53;5286284;28;20047;-77
2022/02/15 02:21:06;;;;;;;13.02;6.13;;;;;;;5.26;100.00;100827.97;5287531;28;20082;-77
2022/02/15 02:23:41;;;;;;;17.13;6.00;;;;;;;5.24;100.00;100836.09;5277410;28;20015;-77
2022/02/15 02:26:12;;;;;;;19.40;6.53;;;;;;;5.19;100.00;100838.31;5287054;28;20547;-77
2022/02/15 02:28:43;;;;;;;19.73;6.28;;;;;;;5.16;100.00;100835.91;5288101;28;20050;-77
2022/02/15 02:31:14;;;;;;;17.85;6.30;;;;;;;5.19;100.00;100844.47;5270589;28;20015;-77
2022/02/15 02:33:44;;;;;;;12.85;5.47;;;;;;;5.20;100.00;100846.16;5288192;28;20462;-77
2022/02/15 02:36:15;;;;;;;28.52;6.53;;;;;;;5.22;100.00;100840.72;5286671;28;20027;-77
2022/02/15 02:38:45;;;;;;;22.77;7.40;;;;;;;5.26;100.00;100843.94;5268743;28;20022;-77
2022/02/15 02:41:15;;;;;;;22.35;6.32;;;;;;;5.26;100.00;100838.63;5287498;28;20032;-77
2022/02/15 02:43:46;;;;;;;21.00;7.38;;;;;;;5.35;100.00;100845.81;5270346;28;20524;-77
2022/02/15 02:46:17;;;;;;;21.50;7.10;;;;;;;5.37;100.00;100849.16;5232506;28;1097365;-78
2022/02/15 02:48:47;;;;;;;23.95;6.53;;;;;;;5.44;100.00;100845.84;5289060;28;20044;-77
2022/02/15 02:51:18;;;;;;;23.25;7.03;;;;;;;5.49;100.00;100848.13;5288352;28;20324;-78
2022/02/15 02:53:48;;;;;;;23.98;7.30;;;;;;;5.50;100.00;100856.94;5288988;28;20491;-78
2022/02/15 02:56:19;;;;;;;19.02;6.88;;;;;;;5.51;100.00;100855.97;5289841;28;20059;-78
2022/02/15 02:58:50;;;;;;;16.08;6.93;;;;;;;5.54;100.00;100853.88;5288485;28;20020;-78
2022/02/15 03:01:20;;;;;;;17.83;7.07;;;;;;;5.50;100.00;100849.81;5290537;28;20024;-78
2022/02/15 03:03:51;;;;;;;24.92;7.50;;;;;;;5.51;100.00;100853.31;5272135;28;20012;-78
2022/02/15 03:06:21;;;;;;;21.85;8.38;;;;;;;5.48;100.00;100858.91;5272763;28;20023;-78
2022/02/15 03:08:56;;;;;;;23.10;7.30;;;;;;;5.46;100.00;100859.03;5290327;28;20023;-78
2022/02/15 03:11:26;;;;;;;22.90;7.25;;;;;;;5.41;100.00;100867.41;5272481;28;20019;-78
2022/02/15 03:14:03;;;;;;;21.38;7.38;;;;;;;5.40;100.00;100868.38;5258429;28;20027;-78
2022/02/15 03:16:34;;;;;;;23.65;9.60;;;;;;;5.36;100.00;100877.59;5273477;28;20484;-78
2022/02/15 03:19:05;;;;;;;22.95;8.45;;;;;;;5.34;100.00;100876.91;5287585;28;20051;-78
2022/02/15 03:21:35;;;;;;;19.52;7.82;;;;;;;5.30;100.00;100872.81;5287155;28;20431;-78
2022/02/15 03:24:06;;;;;;;21.55;8.25;;;;;;;5.29;100.00;100871.13;5259183;28;20016;-79
2022/02/15 03:26:36;;;;;;;19.83;8.32;;;;;;;5.36;100.00;100872.28;5287146;28;20529;-78
2022/02/15 03:29:10;;;;;;;26.05;8.93;;;;;;;5.28;100.00;100877.44;5287476;28;20085;-78
2022/02/15 03:31:41;;;;;;;23.13;8.02;;;;;;;5.30;100.00;100882.59;5289622;28;20051;-78
2022/02/15 03:34:12;;;;;;;20.48;8.43;;;;;;;5.32;100.00;100891.28;5291296;28;20069;-78
2022/02/15 03:36:42;;;;;;;25.33;9.02;;;;;;;5.32;100.00;100905.47;5292247;28;20513;-78
2022/02/15 03:39:13;;;;;;;23.50;8.05;;;;;;;5.29;100.00;100912.84;5292463;28;20054;-78
2022/02/15 03:44:32;;;;;;;23.25;9.32;;;;;;;5.46;100.00;100920.22;5290982;28;20023;-78
2022/02/15 03:47:03;;;;;;;24.88;8.27;;;;;;;5.52;100.00;100922.34;5287016;28;20117;-78
2022/02/15 03:49:33;;;;;;;27.80;9.82;;;;;;;5.51;100.00;100926.00;5286209;28;20039;-78
2022/02/15 03:52:05;;;;;;;31.77;9.75;;;;;;;5.57;100.00;100930.81;5286678;28;20157;-78
2022/02/15 03:54:35;;;;;;;28.98;9.80;;;;;;;5.59;100.00;100931.50;5286619;28;20462;-78
2022/02/15 03:57:06;;;;;;;24.20;10.10;;;;;;;5.62;100.00;100941.91;5287181;28;20102;-78
2022/02/15 03:59:36;;;;;;;23.73;9.65;;;;;;;5.66;100.00;100937.97;5288981;28;20122;-78
2022/02/15 04:02:07;;;;;;;27.05;9.73;;;;;;;5.68;100.00;100941.38;5289336;28;20016;-78
2022/02/15 04:04:37;;;;;;;25.25;9.60;;;;;;;5.69;100.00;100943.03;5295677;28;20035;-78
2022/02/15 04:07:08;;;;;;;24.88;9.68;;;;;;;5.68;100.00;100952.00;5273827;28;20425;-78
2022/02/15 04:09:38;;;;;;;26.67;9.95;;;;;;;5.66;100.00;100959.28;5291645;28;20090;-78
2022/02/15 04:12:10;;;;;;;20.38;9.10;;;;;;;5.69;100.00;100964.34;5286649;28;20081;-78
2022/02/15 04:14:40;;;;;;;31.00;9.88;;;;;;;5.68;100.00;100961.81;5285467;28;20111;-78
2022/02/15 04:17:10;;;;;;;29.48;9.45;;;;;;;5.68;100.00;100969.81;5273161;28;20102;-78
2022/02/15 04:19:41;;;;;;;23.75;9.55;;;;;;;5.70;100.00;100967.84;5286566;28;20083;-78
2022/02/15 04:22:11;;;;;;;20.65;9.70;;;;;;;5.68;100.00;100968.00;5283952;28;20019;-78
2022/02/15 04:24:42;;;;;;;32.20;11.13;;;;;;;5.67;100.00;100968.09;5282790;28;20748;-78
2022/02/15 04:27:12;;;;;;;28.88;9.63;;;;;;;5.71;100.00;100974.84;5288847;28;20355;-78
2022/02/15 04:29:43;;;;;;;23.52;10.35;;;;;;;5.74;100.00;100976.41;5252668;28;20498;-78
2022/02/15 04:32:14;;;;;;;30.95;10.38;;;;;;;5.67;100.00;100981.41;5285826;28;20416;-78
2022/02/15 04:34:45;;;;;;;23.38;9.32;;;;;;;5.68;100.00;100985.78;5268304;28;20433;-77
2022/02/15 04:37:15;;;;;;;24.67;9.80;;;;;;;5.67;100.00;100986.72;5285640;28;20080;-77
2022/02/15 04:39:47;;;;;;;28.23;10.25;;;;;;;5.69;100.00;100990.97;5285723;28;20026;-77
2022/02/15 04:42:17;;;;;;;27.75;9.32;;;;;;;5.74;100.00;100997.72;5286043;28;20527;-77
2022/02/15 04:44:48;;;;;;;23.52;9.88;;;;;;;5.69;100.00;101006.09;5285671;28;20027;-77
2022/02/15 04:47:18;;;;;;;27.02;10.32;;;;;;;5.66;100.00;100996.53;5285529;28;20502;-77
2022/02/15 04:49:49;;;;;;;21.63;9.98;;;;;;;5.65;100.00;101000.19;5285630;28;20106;-77
2022/02/15 04:52:19;;;;;;;51.08;11.55;;;;;;;5.67;100.00;101008.91;5285583;28;20111;-77
2022/02/15 04:54:49;;;;;;;45.42;20.90;;;;;;;5.67;100.00;101010.69;5285524;28;20055;-77
2022/02/15 04:57:20;;;;;;;50.88;24.23;;;;;;;5.71;100.00;101014.78;5285513;28;20066;-77
2022/02/15 04:59:50;;;;;;;27.45;9.50;;;;;;;5.68;100.00;101009.72;5285231;28;20032;-77
2022/02/15 05:02:21;;;;;;;37.13;11.38;;;;;;;5.66;100.00;101017.81;5284920;28;20020;-77
2022/02/15 05:04:53;;;;;;;69.57;28.27;;;;;;;5.68;100.00;101020.38;5285466;28;20019;-77
2022/02/15 05:07:23;;;;;;;29.50;10.50;;;;;;;5.70;100.00;101021.09;5285487;28;20042;-77
2022/02/15 05:09:54;;;;;;;59.03;20.20;;;;;;;5.73;100.00;101018.16;5286185;28;20377;-78
2022/02/15 05:12:24;;;;;;;48.42;20.02;;;;;;;5.75;100.00;101018.03;5285012;28;20104;-77
2022/02/15 05:14:55;;;;;;;35.50;12.40;;;;;;;5.75;100.00;101026.84;5283955;28;20028;-77
2022/02/15 05:17:26;;;;;;;29.13;9.50;;;;;;;5.73;100.00;101023.50;5275084;28;20051;-77
2022/02/15 05:19:57;;;;;;;36.05;14.88;;;;;;;5.77;100.00;101035.53;5285496;28;20054;-77
2022/02/15 05:22:27;;;;;;;25.73;9.90;;;;;;;5.79;100.00;101033.63;5278034;28;20043;-77
2022/02/15 05:24:58;;;;;;;36.90;15.35;;;;;;;5.81;100.00;101042.31;5282713;28;20436;-77
2022/02/15 05:27:28;;;;;;;22.00;9.43;;;;;;;5.79;100.00;101048.75;5285643;28;20063;-77
2022/02/15 05:29:58;;;;;;;57.97;24.42;;;;;;;5.77;100.00;101046.19;5285408;28;20076;-77
2022/02/15 05:32:29;;;;;;;22.50;8.73;;;;;;;5.76;100.00;101044.50;5285135;28;20028;-77
2022/02/15 05:34:59;;;;;;;61.95;29.33;;;;;;;5.79;100.00;101049.59;5285158;28;20038;-77
2022/02/15 05:37:30;;;;;;;38.20;20.17;;;;;;;5.75;100.00;101050.81;5285124;28;20033;-77
2022/02/15 05:40:02;;;;;;;43.05;19.33;;;;;;;5.74;100.00;101053.63;5285532;28;20016;-77
2022/02/15 05:42:33;;;;;;;54.00;27.20;;;;;;;5.70;100.00;101058.34;5285697;28;21609;-78
2022/02/15 05:45:04;;;;;;;30.50;15.10;;;;;;;5.68;100.00;101055.00;5285124;28;20161;-77
2022/02/15 05:47:35;;;;;;;33.50;11.10;;;;;;;5.62;100.00;101058.13;5290835;28;20027;-78
2022/02/15 05:52:55;;;;;;;35.40;15.00;;;;;;;5.57;100.00;101069.19;5272030;28;20028;-77
2022/02/15 05:55:25;;;;;;;49.92;25.15;;;;;;;5.58;100.00;101056.72;5285885;28;20026;-80
2022/02/15 05:57:56;;;;;;;40.45;22.23;;;;;;;5.60;100.00;101060.09;5285381;28;20031;-79
2022/02/15 06:00:26;;;;;;;43.00;23.63;;;;;;;5.60;100.00;101060.09;5284971;28;20471;-79
2022/02/15 06:02:57;;;;;;;31.15;15.02;;;;;;;5.62;100.00;101068.78;5271095;28;20019;-79
2022/02/15 06:05:28;;;;;;;19.45;8.55;;;;;;;5.57;100.00;101074.53;5268359;28;20092;-77
2022/02/15 06:07:59;;;;;;;30.10;9.77;;;;;;;5.57;100.00;101076.31;5285128;28;20035;-78
2022/02/15 06:10:29;;;;;;;28.15;12.60;;;;;;;5.58;100.00;101070.03;5268401;28;20019;-79
2022/02/15 06:13:00;;;;;;;42.13;13.38;;;;;;;5.57;100.00;101071.00;5287032;28;20020;-79
2022/02/15 06:15:30;;;;;;;42.50;15.43;;;;;;;5.55;100.00;101079.13;5269531;28;20062;-79
2022/02/15 06:18:01;;;;;;;23.90;9.02;;;;;;;5.53;100.00;101078.41;5286398;28;20076;-81
2022/02/15 06:20:31;;;;;;;44.95;17.33;;;;;;;5.54;100.00;101073.94;5273279;28;20109;-78
2022/02/15 06:23:02;;;;;;;28.27;8.82;;;;;;;5.52;100.00;101076.69;5289945;28;20027;-78
2022/02/15 06:25:34;;;;;;;23.65;9.32;;;;;;;5.45;100.00;101081.69;5291884;28;20024;-80
2022/02/15 06:28:04;;;;;;;24.60;11.15;;;;;;;5.43;100.00;101085.47;5274025;28;20450;-80
2022/02/15 06:30:35;;;;;;;36.53;17.05;;;;;;;5.42;100.00;101083.75;5289016;28;20106;-77
2022/02/15 06:33:05;;;;;;;25.23;11.63;;;;;;;5.42;100.00;101087.28;5288424;28;20023;-77
2022/02/15 06:35:36;;;;;;;19.38;8.27;;;;;;;5.36;100.00;101090.44;5288054;28;20023;-78
2022/02/15 06:38:06;;;;;;;24.73;7.75;;;;;;;5.34;100.00;101097.72;5288352;28;20563;-77
2022/02/15 06:40:37;;;;;;;17.02;6.80;;;;;;;5.33;100.00;101095.19;5289328;28;20376;-77
2022/02/15 06:43:07;;;;;;;16.10;6.38;;;;;;;5.29;100.00;101101.72;5288339;28;20315;-79
2022/02/15 06:45:38;;;;;;;21.75;7.15;;;;;;;5.27;100.00;101106.31;5269795;28;20104;-79
2022/02/15 06:48:10;;;;;;;16.70;6.60;;;;;;;5.29;100.00;101115.88;5292611;28;20028;-78
2022/02/15 06:50:40;;;;;;;18.10;6.57;;;;;;;5.28;100.00;101108.84;5291434;28;20398;-79
2022/02/15 06:53:11;;;;;;;14.40;6.22;;;;;;;5.35;100.00;101125.16;5290890;28;20019;-78
2022/02/15 06:55:41;;;;;;;22.20;6.78;;;;;;;5.40;100.00;101125.63;5292109;28;20024;-78
2022/02/15 06:58:12;;;;;;;17.23;7.20;;;;;;;5.43;100.00;101128.03;5292079;28;20099;-78
2022/02/15 07:00:42;;;;;;;32.70;9.13;;;;;;;5.45;100.00;101134.91;5292130;28;20030;-79
2022/02/15 07:03:13;;;;;;;12.50;6.18;;;;;;;5.48;100.00;101130.31;5291647;28;20023;-79
2022/02/15 07:05:43;;;;;;;52.80;7.72;;;;;;;5.49;100.00;101132.00;5287974;28;20106;-78
2022/02/15 07:08:14;;;;;;;25.48;7.20;;;;;;;5.45;100.00;101137.56;5269930;28;20042;-78
2022/02/15 07:10:46;;;;;;;16.20;6.32;;;;;;;5.43;100.00;101141.34;5289289;28;20027;-79
2022/02/15 07:13:16;;;;;;;17.48;6.05;;;;;;;5.45;100.00;101150.88;5271374;28;20513;-79
2022/02/15 07:15:47;;;;;;;24.80;7.22;;;;;;;5.49;100.00;101156.81;5278558;28;20035;-78
2022/02/15 07:18:17;;;;;;;24.02;6.30;;;;;;;5.51;100.00;101162.00;5284200;28;20016;-79
2022/02/15 07:20:48;;;;;;;44.38;16.10;;;;;;;5.50;100.00;101157.66;5288992;28;20050;-79
2022/02/15 07:23:18;;;;;;;15.73;6.53;;;;;;;5.52;100.00;101161.00;5279102;28;20103;-79
2022/02/15 07:25:49;;;;;;;15.45;6.30;;;;;;;5.56;100.00;101167.78;5268592;28;20065;-78
2022/02/15 07:28:19;;;;;;;15.10;8.20;;;;;;;5.60;100.00;101171.88;5269936;28;20095;-79
2022/02/15 07:30:50;;;;;;;16.92;6.20;;;;;;;5.56;100.00;101167.78;5288782;28;20115;-79
2022/02/15 07:33:21;;;;;;;18.48;8.00;;;;;;;5.55;100.00;101174.91;5269141;28;20410;-78
2022/02/15 07:35:51;;;;;;;18.42;6.40;;;;;;;5.60;100.00;101182.53;5287264;28;20390;-79
2022/02/15 07:38:22;;;;;;;15.27;6.20;;;;;;;5.65;100.00;101183.84;5287584;28;20039;-78
2022/02/15 07:40:52;;;;;;;26.38;9.32;;;;;;;5.67;100.00;101191.69;5288734;28;20031;-77
2022/02/15 07:43:25;;;;;;;26.27;9.00;;;;;;;5.77;100.00;101189.97;5288752;28;20023;-77
2022/02/15 07:45:55;;;;;;;19.27;9.07;;;;;;;5.78;100.00;101196.16;5289490;28;20028;-76
2022/02/15 07:48:26;;;;;;;39.85;14.20;;;;;;;5.80;100.00;101195.03;5291041;28;20035;-77
2022/02/15 07:50:57;;;;;;;17.55;7.75;;;;;;;5.84;100.00;101180.50;5290311;28;20031;-76
2022/02/15 07:53:27;;;;;;;18.58;5.35;;;;;;;5.89;100.00;101198.78;5290357;28;20440;-76
2022/02/15 07:55:58;;;;;;;30.02;11.30;;;;;;;5.91;100.00;101194.16;5290396;28;20019;-76
2022/02/15 07:58:28;;;;;;;22.15;7.95;;;;;;;5.78;100.00;101196.16;5290828;28;20019;-76
2022/02/15 08:00:59;;;;;;;23.80;9.93;;;;;;;6.00;100.00;101206.72;5289759;28;20060;-76
2022/02/15 08:03:29;;;;;;;17.92;7.70;;;;;;;6.46;100.00;101198.34;5287897;28;20019;-76
2022/02/15 08:06:00;;;;;;;18.08;7.10;;;;;;;7.02;100.00;101199.75;5287783;28;20027;-76
2022/02/15 08:08:30;;;;;;;22.33;5.68;;;;;;;7.39;100.00;101194.69;5288236;28;20032;-76
2022/02/15 08:11:01;;;;;;;19.45;7.30;;;;;;;7.75;100.00;101197.69;5287728;28;20031;-75
2022/02/15 08:13:44;;;;;;;13.38;4.53;;;;;;;7.99;100.00;101206.16;5286688;28;20035;-81
2022/02/15 08:16:34;;;;;;;10.82;4.57;;;;;;;8.27;100.00;101209.78;5272185;28;20024;-78
2022/02/15 08:19:04;;;;;;;16.60;7.40;;;;;;;8.72;100.00;101203.81;5270261;28;20035;-78
2022/02/15 08:21:35;;;;;;;7.82;2.75;;;;;;;8.57;100.00;101208.75;5288750;28;20029;-78
2022/02/15 08:24:05;;;;;;;10.45;3.47;;;;;;;8.59;100.00;101214.00;5279098;28;20020;-78
2022/02/15 08:26:36;;;;;;;6.65;3.03;;;;;;;8.74;100.00;101212.53;5270297;28;20023;-78
2022/02/15 08:29:06;;;;;;;12.73;3.80;;;;;;;8.79;100.00;101225.47;5294464;28;20038;-78
2022/02/15 08:31:37;;;;;;;8.77;3.65;;;;;;;9.21;100.00;101225.03;5291125;28;20053;-79
2022/02/15 08:34:07;;;;;;;11.30;3.17;;;;;;;9.36;100.00;101233.41;5249850;28;20015;-79
2022/02/15 08:36:38;;;;;;;10.90;3.05;;;;;;;8.85;100.00;101230.25;5288089;28;20555;-79
2022/02/15 08:39:10;;;;;;;6.45;2.35;;;;;;;9.27;100.00;101235.13;5288040;28;20436;-79
2022/02/15 08:41:41;;;;;;;11.80;3.35;;;;;;;9.32;100.00;101232.84;5249291;28;20039;-79
2022/02/15 08:44:12;;;;;;;8.10;3.05;;;;;;;9.26;100.00;101236.97;5282546;28;20015;-78
2022/02/15 08:46:43;;;;;;;7.45;2.90;;;;;;;9.35;100.00;101245.97;5285636;28;20490;-78
2022/02/15 08:49:13;;;;;;;10.80;3.13;;;;;;;9.08;100.00;101244.09;5288568;28;20203;-78
2022/02/15 08:51:43;;;;;;;11.60;4.13;;;;;;;9.47;100.00;101241.25;5288981;28;20034;-78
2022/02/15 08:54:14;;;;;;;10.73;2.30;;;;;;;9.36;100.00;101250.31;5270275;28;20028;-78
2022/02/15 08:56:44;;;;;;;12.23;4.63;;;;;;;9.67;100.00;101258.03;5270815;28;20051;-78
2022/02/15 08:59:15;;;;;;;12.88;3.70;;;;;;;9.66;100.00;101251.84;5271001;28;20023;-78
2022/02/15 09:01:45;;;;;;;26.45;6.72;;;;;;;9.73;100.00;101246.72;5270959;28;20034;-81
2022/02/15 09:04:16;;;;;;;25.23;8.32;;;;;;;9.90;100.00;101239.72;5273167;28;20047;-79
2022/02/15 09:06:46;;;;;;;16.42;5.78;;;;;;;9.86;100.00;101245.38;5274906;28;20024;-79
2022/02/15 09:09:18;;;;;;;16.48;3.95;;;;;;;10.17;100.00;101233.41;5292655;28;20065;-79
2022/02/15 09:11:49;;;;;;;20.75;7.10;;;;;;;10.54;100.00;101252.88;5291524;28;20031;-79
2022/02/15 09:14:19;;;;;;;14.48;3.35;;;;;;;11.00;100.00;101245.47;5276060;28;20023;-83
2022/02/15 09:16:50;;;;;;;10.95;2.60;;;;;;;11.28;100.00;101248.78;5279694;28;20043;-79
2022/02/15 09:19:20;;;;;;;12.13;4.05;;;;;;;11.51;100.00;101232.09;5287880;28;20032;-80
2022/02/15 09:21:51;;;;;;;11.73;2.45;;;;;;;11.14;100.00;101231.44;5288168;28;20020;-79
2022/02/15 09:24:22;;;;;;;7.70;2.28;;;;;;;11.88;100.00;101245.16;5290186;28;20119;-79
2022/02/15 09:26:53;;;;;;;9.70;1.90;;;;;;;11.59;100.00;101237.47;5280097;28;20038;-79
2022/02/15 09:29:24;;;;;;;12.02;2.78;;;;;;;11.50;100.00;101241.16;5292810;28;20039;-80
2022/02/15 09:31:54;;;;;;;6.75;2.35;;;;;;;11.78;100.00;101247.94;5292374;28;20024;-80
2022/02/15 09:34:27;;;;;;;8.93;1.80;;;;;;;12.04;100.00;101247.84;5275070;28;20481;-80
2022/02/15 09:36:57;;;;;;;17.15;2.85;;;;;;;10.95;100.00;101245.09;5274624;28;20108;-80
2022/02/15 09:39:28;;;;;;;7.45;1.90;;;;;;;11.70;100.00;101239.88;5293606;28;20047;-80
2022/02/15 09:41:59;;;;;;;10.07;2.00;;;;;;;12.11;100.00;101248.88;5274570;28;20115;-80
2022/02/15 09:44:30;;;;;;;11.98;2.25;;;;;;;12.05;100.00;101249.56;5273912;28;20108;-80
2022/02/15 09:47:01;;;;;;;11.35;2.00;;;;;;;11.56;100.00;101243.19;5293407;28;20140;-80
2022/02/15 09:52:24;;;;;;;14.40;1.77;;;;;;;11.35;100.00;101244.47;5296807;28;20104;-80
2022/02/15 09:54:55;;;;;;;12.15;2.42;;;;;;;11.65;100.00;101245.75;5297604;28;20142;-80
2022/02/15 09:57:27;;;;;;;7.82;1.85;;;;;;;11.29;100.00;101242.41;5297217;28;20045;-80
2022/02/15 09:59:57;;;;;;;6.05;1.85;;;;;;;10.82;100.00;101244.69;5296075;28;20028;-80
2022/02/15 10:02:34;;;;;;;7.85;1.85;;;;;;;11.87;100.00;101249.69;5296100;28;20016;-79
2022/02/15 10:05:05;;;;;;;6.88;1.70;;;;;;;11.96;100.00;101255.94;5278024;28;20509;-80
2022/02/15 10:07:44;;;;;;;14.75;8.98;;;;;;;11.95;100.00;101250.69;5277841;28;20424;-80
2022/02/15 10:10:45;;;;;;;7.15;1.73;;;;;;;11.40;100.00;101243.97;5295975;28;20020;-80
2022/02/15 10:13:15;;;;;;;12.02;1.80;;;;;;;11.00;100.00;101241.94;5276093;28;20110;-80
2022/02/15 10:15:46;;;;;;;10.93;1.95;;;;;;;11.76;100.00;101243.75;5260712;28;20111;-80
2022/02/15 10:18:37;;;;;;;17.88;2.28;;;;;;;10.97;100.00;101237.72;5283690;28;20015;-80
2022/02/15 10:21:08;;;;;;;9.75;2.03;;;;;;;10.78;100.00;101233.41;5271024;28;20185;-79
2022/02/15 10:23:38;;;;;;;9.77;1.38;;;;;;;10.83;100.00;101243.66;5240921;28;20111;-80
2022/02/15 10:26:09;;;;;;;7.10;1.88;;;;;;;10.57;100.00;101239.13;5282633;28;20066;-80
2022/02/15 10:28:39;;;;;;;8.23;1.70;;;;;;;10.46;100.00;101234.03;5271855;28;20032;-80
2022/02/15 10:31:13;;;;;;;14.55;2.58;;;;;;;9.66;100.00;101243.81;5271138;28;20015;-80
2022/02/15 10:33:46;;;;;;;8.07;1.80;;;;;;;9.35;100.00;101237.94;5278925;28;20028;-80
2022/02/15 10:36:16;;;;;;;12.90;2.22;;;;;;;9.41;100.00;101245.34;5286999;28;20055;-80
2022/02/15 10:38:50;;;;;;;6.82;1.95;;;;;;;9.61;100.00;101238.06;5251374;28;20541;-80
2022/02/15 10:41:22;;;;;;;6.72;2.35;;;;;;;9.42;100.00;101235.50;5291264;28;20020;-80
2022/02/15 10:43:55;;;;;;;5.70;1.80;;;;;;;9.51;100.00;101248.00;5291168;28;20027;-82
2022/02/15 10:46:28;;;;;;;16.70;4.20;;;;;;;9.44;100.00;101253.09;5265640;28;20326;-81
2022/02/15 10:48:59;;;;;;;56.25;16.35;;;;;;;9.61;100.00;101243.41;5281902;28;20023;-81
2022/02/15 10:51:29;;;;;;;18.10;4.72;;;;;;;9.77;100.00;101248.94;5299607;28;20051;-81
2022/02/15 10:54:00;;;;;;;29.02;8.38;;;;;;;9.80;100.00;101237.09;5281172;28;20028;-81
2022/02/15 10:56:32;;;;;;;17.33;4.82;;;;;;;9.88;100.00;101237.16;5281559;28;20031;-81
2022/02/15 10:59:05;;;;;;;9.20;1.52;;;;;;;10.00;100.00;101224.41;5300460;28;20026;-81
2022/02/15 11:01:35;;;;;;;12.52;3.60;;;;;;;9.88;100.00;101215.72;5281886;28;20023;-81
2022/02/15 11:04:07;;;;;;;15.68;6.00;;;;;;;9.86;100.00;101218.56;5263028;28;20025;-81
2022/02/15 11:06:39;;;;;;;18.05;4.30;;;;;;;9.95;100.00;101226.69;5278353;28;20020;-81
2022/02/15 11:09:17;;;;;;;12.90;2.63;;;;;;;9.61;100.00;101222.00;5262748;28;20023;-81
2022/02/15 11:12:03;;;;;;;5.90;1.83;;;;;;;9.47;100.00;101227.84;5296649;28;20042;-81
2022/02/15 11:14:37;;;;;;;8.10;1.70;;;;;;;9.13;100.00;101220.41;5296199;28;20485;-81
2022/02/15 11:17:26;;;;;;;7.18;1.58;;;;;;;9.16;100.00;101229.97;5265952;28;20020;-81
2022/02/15 11:19:59;;;;;;;7.00;1.95;;;;;;;9.22;100.00;101235.56;5297621;28;20034;-81
2022/02/15 11:22:41;;;;;;;9.18;1.67;;;;;;;9.29;100.00;101233.19;5270917;28;20016;-80
2022/02/15 11:25:12;;;;;;;8.00;1.48;;;;;;;9.53;100.00;101229.91;5296747;28;20019;-81
2022/02/15 11:28:11;;;;;;;7.13;2.00;;;;;;;9.85;100.00;101216.88;5278795;28;20031;-81
2022/02/15 11:30:56;;;;;;;4.72;1.70;;;;;;;9.82;100.00;101213.66;5279763;28;20110;-81
2022/02/15 11:33:44;;;;;;;9.75;1.25;;;;;;;9.72;100.00;101215.56;5267132;28;20034;-80
2022/02/15 11:36:16;;;;;;;6.25;1.48;;;;;;;9.53;100.00;101203.97;5274600;28;20558;-79
2022/02/15 11:39:10;;;;;;;12.70;2.17;;;;;;;9.55;100.00;101193.97;5294282;28;20031;-80
2022/02/15 11:41:44;;;;;;;9.55;1.65;;;;;;;9.79;100.00;101185.34;5282606;28;20028;-80
2022/02/15 11:44:15;;;;;;;7.47;1.50;;;;;;;9.85;100.00;101176.69;5293249;28;20031;-80